Time;durP1;ratioP1;P1;durP2;ratioP2;P2;SDS_P1;SDS_P2;PMS_P1;PMS_P2;Temp;Humidity;BMP_temperature;BMP_pressure;BME280_temperature;BME280_humidity;BME280_pressure;Samples;Min_cycle;Max_cycle;Signal;HPM_P1;HPM_P2
2023/04/28 00:01:43;;;;;;;11.32;10.10;;;;;;;;;;5113415;28;20031;-64
2023/04/28 00:04:09;;;;;;;11.10;9.85;;;;;;;;;;5113501;28;20055;-63
2023/04/28 00:06:36;;;;;;;13.15;10.23;;;;;;;;;;5113337;28;20020;-65
2023/04/28 00:09:02;;;;;;;12.02;9.70;;;;;;;;;;5113560;28;20031;-64
2023/04/28 00:11:28;;;;;;;13.18;10.30;;;;;;;;;;5113789;28;20020;-61
2023/04/28 00:13:54;;;;;;;11.32;9.50;;;;;;;;;;5112220;28;20123;-64
2023/04/28 00:16:20;;;;;;;10.68;9.40;;;;;;;;;;5113246;28;20487;-64
2023/04/28 00:18:47;;;;;;;12.55;10.57;;;;;;;;;;5113041;28;20024;-62
2023/04/28 00:21:13;;;;;;;11.43;9.63;;;;;;;;;;5112858;28;20039;-63
2023/04/28 00:23:39;;;;;;;10.10;9.10;;;;;;;;;;5112874;28;20065;-61
2023/04/28 00:26:05;;;;;;;11.82;10.63;;;;;;;;;;5113191;28;20031;-63
2023/04/28 00:28:31;;;;;;;11.27;9.32;;;;;;;;;;5113316;28;20016;-64
2023/04/28 00:30:57;;;;;;;12.18;10.23;;;;;;;;;;5112791;28;20027;-63
2023/04/28 00:33:23;;;;;;;11.05;9.85;;;;;;;;;;5112964;28;20115;-63
2023/04/28 00:35:48;;;;;;;10.98;9.73;;;;;;;;;;5112616;28;20349;-63
2023/04/28 00:38:15;;;;;;;11.00;9.80;;;;;;;;;;5112633;28;20023;-61
2023/04/28 00:40:41;;;;;;;10.73;9.07;;;;;;;;;;5112660;28;20015;-63
2023/04/28 00:43:07;;;;;;;12.65;9.68;;;;;;;;;;5112808;28;20028;-63
2023/04/28 00:45:33;;;;;;;10.45;9.15;;;;;;;;;;5112970;28;20030;-63
2023/04/28 00:47:59;;;;;;;11.05;9.63;;;;;;;;;;5112841;28;20076;-65
2023/04/28 00:50:25;;;;;;;10.02;8.93;;;;;;;;;;5112537;28;20036;-65
2023/04/28 00:52:51;;;;;;;10.90;9.65;;;;;;;;;;5112333;27;20054;-63
2023/04/28 00:55:18;;;;;;;10.63;9.07;;;;;;;;;;5112514;28;20055;-65
2023/04/28 00:57:45;;;;;;;10.27;9.15;;;;;;;;;;5112221;28;20032;-64
2023/04/28 01:00:11;;;;;;;10.15;9.10;;;;;;;;;;5112454;28;20034;-64
2023/04/28 01:02:37;;;;;;;10.77;9.00;;;;;;;;;;5112131;28;20026;-66
2023/04/28 01:05:03;;;;;;;10.25;9.15;;;;;;;;;;5112380;28;20019;-64
2023/04/28 01:07:29;;;;;;;11.00;8.82;;;;;;;;;;5112671;28;20409;-65
2023/04/28 01:09:55;;;;;;;10.30;8.75;;;;;;;;;;5112012;28;20039;-62
2023/04/28 01:12:22;;;;;;;10.13;9.13;;;;;;;;;;5112231;28;20027;-63
2023/04/28 01:14:48;;;;;;;10.52;9.25;;;;;;;;;;5111896;28;20440;-64
2023/04/28 01:17:15;;;;;;;10.70;8.60;;;;;;;;;;5112174;28;20020;-64
2023/04/28 01:19:40;;;;;;;10.20;8.65;;;;;;;;;;5111779;28;20110;-63
2023/04/28 01:22:09;;;;;;;9.10;7.85;;;;;;;;;;5112122;28;20102;-63
2023/04/28 01:24:35;;;;;;;9.68;8.18;;;;;;;;;;5111711;28;20023;-62
2023/04/28 01:27:01;;;;;;;9.63;8.63;;;;;;;;;;5112225;28;20387;-63
2023/04/28 01:29:27;;;;;;;9.13;8.23;;;;;;;;;;5111745;28;20035;-64
2023/04/28 01:31:53;;;;;;;9.68;8.68;;;;;;;;;;5111794;27;20050;-63
2023/04/28 01:34:19;;;;;;;10.32;8.02;;;;;;;;;;5111780;27;20475;-65
2023/04/28 01:36:45;;;;;;;9.05;8.15;;;;;;;;;;5111452;28;20132;-65
2023/04/28 01:39:12;;;;;;;9.32;8.27;;;;;;;;;;5111862;28;20060;-64
2023/04/28 01:41:38;;;;;;;8.63;7.60;;;;;;;;;;5111359;28;20024;-66
2023/04/28 01:44:06;;;;;;;10.13;7.82;;;;;;;;;;5111827;28;20080;-63
2023/04/28 01:46:32;;;;;;;9.40;8.23;;;;;;;;;;5111012;28;20358;-64
2023/04/28 01:48:58;;;;;;;10.23;8.40;;;;;;;;;;5111726;28;20032;-63
2023/04/28 01:51:24;;;;;;;10.35;8.65;;;;;;;;;;5111539;28;20036;-65
2023/04/28 01:53:50;;;;;;;10.07;8.18;;;;;;;;;;5111204;28;20518;-63
2023/04/28 01:56:16;;;;;;;9.45;8.25;;;;;;;;;;5111531;28;20476;-68
2023/04/28 01:58:42;;;;;;;8.82;7.50;;;;;;;;;;5111306;28;20046;-69
2023/04/28 02:01:08;;;;;;;9.63;7.25;;;;;;;;;;5111549;28;20391;-68
2023/04/28 02:03:34;;;;;;;8.77;7.25;;;;;;;;;;5111178;28;20062;-69
2023/04/28 02:06:00;;;;;;;8.93;7.72;;;;;;;;;;5110499;28;20051;-64
2023/04/28 02:08:26;;;;;;;8.98;7.60;;;;;;;;;;5111487;28;20498;-62
2023/04/28 02:10:52;;;;;;;8.05;7.18;;;;;;;;;;5111151;28;20106;-63
2023/04/28 02:13:18;;;;;;;9.10;7.50;;;;;;;;;;5111207;28;20125;-62
2023/04/28 02:15:44;;;;;;;8.00;7.18;;;;;;;;;;5111028;28;20110;-62
2023/04/28 02:18:10;;;;;;;8.70;7.32;;;;;;;;;;5111139;28;20435;-63
2023/04/28 02:20:36;;;;;;;9.30;7.05;;;;;;;;;;5111057;28;20092;-63
2023/04/28 02:23:02;;;;;;;7.43;6.72;;;;;;;;;;5111474;28;20480;-62
2023/04/28 02:25:28;;;;;;;9.13;7.40;;;;;;;;;;5111619;28;20027;-62
2023/04/28 02:27:54;;;;;;;7.55;6.65;;;;;;;;;;5111032;28;20032;-63
2023/04/28 02:30:20;;;;;;;8.35;7.22;;;;;;;;;;5111145;28;20040;-62
2023/04/28 02:32:47;;;;;;;7.72;6.85;;;;;;;;;;5110784;28;20015;-62
2023/04/28 02:35:13;;;;;;;7.93;7.10;;;;;;;;;;5111238;28;20031;-62
2023/04/28 02:37:39;;;;;;;8.13;7.22;;;;;;;;;;5115015;28;20019;-62
2023/04/28 02:40:06;;;;;;;7.78;6.70;;;;;;;;;;5115030;28;20031;-62
2023/04/28 02:42:32;;;;;;;7.47;6.45;;;;;;;;;;5115525;28;20072;-64
2023/04/28 02:44:58;;;;;;;7.03;6.32;;;;;;;;;;5115409;27;20024;-65
2023/04/28 02:47:24;;;;;;;7.18;6.47;;;;;;;;;;5114969;28;20051;-62
2023/04/28 02:49:50;;;;;;;7.93;7.13;;;;;;;;;;5114643;28;20031;-62
2023/04/28 02:52:16;;;;;;;7.10;6.40;;;;;;;;;;5115120;28;20024;-62
2023/04/28 02:54:42;;;;;;;8.20;6.22;;;;;;;;;;5114636;27;20032;-62
2023/04/28 02:57:08;;;;;;;6.88;6.18;;;;;;;;;;5114752;28;20016;-62
2023/04/28 02:59:35;;;;;;;8.23;6.93;;;;;;;;;;5114553;28;20039;-62
2023/04/28 03:02:01;;;;;;;6.97;6.15;;;;;;;;;;5114908;28;20494;-62
2023/04/28 03:04:27;;;;;;;7.60;6.43;;;;;;;;;;5114767;28;20463;-62
2023/04/28 03:06:53;;;;;;;6.68;6.07;;;;;;;;;;5114473;28;20367;-63
2023/04/28 03:09:19;;;;;;;6.78;6.07;;;;;;;;;;5114565;28;20028;-62
2023/04/28 03:11:45;;;;;;;6.68;5.75;;;;;;;;;;5114292;28;20019;-62
2023/04/28 03:14:11;;;;;;;7.90;6.43;;;;;;;;;;5114603;28;20024;-62
2023/04/28 03:16:37;;;;;;;6.72;6.03;;;;;;;;;;5114015;28;20012;-62
2023/04/28 03:19:03;;;;;;;7.18;6.43;;;;;;;;;;5114427;28;20052;-62
2023/04/28 03:21:31;;;;;;;6.53;5.63;;;;;;;;;;5114584;28;20136;-62
2023/04/28 03:23:57;;;;;;;7.22;5.93;;;;;;;;;;5114148;28;20054;-62
2023/04/28 03:26:23;;;;;;;6.75;5.90;;;;;;;;;;5114288;28;20656;-62
2023/04/28 03:28:49;;;;;;;6.63;5.82;;;;;;;;;;5113774;28;20398;-63
2023/04/28 03:31:15;;;;;;;6.28;5.53;;;;;;;;;;5114121;28;20023;-62
2023/04/28 03:33:41;;;;;;;6.30;5.53;;;;;;;;;;5113945;28;20361;-63
2023/04/28 03:36:07;;;;;;;6.85;5.95;;;;;;;;;;5114223;28;20039;-63
2023/04/28 03:38:33;;;;;;;7.22;5.55;;;;;;;;;;5113854;28;20390;-62
2023/04/28 03:40:59;;;;;;;5.85;5.35;;;;;;;;;;5114411;28;20102;-63
2023/04/28 03:43:25;;;;;;;6.30;5.20;;;;;;;;;;5113889;28;20085;-62
2023/04/28 03:45:51;;;;;;;5.82;5.22;;;;;;;;;;5113540;28;20028;-62
2023/04/28 03:48:17;;;;;;;5.90;5.30;;;;;;;;;;5112494;28;20464;-62
2023/04/28 03:50:44;;;;;;;6.72;5.95;;;;;;;;;;5113526;28;20080;-67
2023/04/28 03:53:10;;;;;;;5.70;5.10;;;;;;;;;;5113903;28;20058;-63
2023/04/28 03:55:36;;;;;;;5.70;5.10;;;;;;;;;;5113453;28;20035;-63
2023/04/28 03:58:02;;;;;;;5.38;4.88;;;;;;;;;;5113926;28;20068;-63
2023/04/28 04:00:28;;;;;;;5.15;4.47;;;;;;;;;;5113944;28;20019;-63
2023/04/28 04:02:54;;;;;;;5.55;4.95;;;;;;;;;;5113303;28;20028;-62
2023/04/28 04:05:21;;;;;;;6.47;5.47;;;;;;;;;;5113430;28;20028;-61
2023/04/28 04:07:47;;;;;;;6.55;5.47;;;;;;;;;;5113195;28;20339;-60
2023/04/28 04:10:13;;;;;;;5.13;4.63;;;;;;;;;;5113314;28;20043;-63
2023/04/28 04:12:39;;;;;;;5.93;5.18;;;;;;;;;;5113056;28;20034;-63
2023/04/28 04:15:05;;;;;;;6.85;5.20;;;;;;;;;;5113486;28;20031;-62
2023/04/28 04:17:31;;;;;;;5.25;4.75;;;;;;;;;;5113669;28;20039;-63
2023/04/28 04:19:57;;;;;;;6.32;4.95;;;;;;;;;;5112966;28;20400;-63
2023/04/28 04:22:23;;;;;;;5.82;5.03;;;;;;;;;;5113195;28;20042;-61
2023/04/28 04:24:49;;;;;;;4.57;3.88;;;;;;;;;;5112879;28;20571;-63
2023/04/28 04:27:15;;;;;;;5.22;4.47;;;;;;;;;;5112935;28;20068;-60
2023/04/28 04:29:41;;;;;;;4.57;4.15;;;;;;;;;;5112708;28;20035;-63
2023/04/28 04:32:07;;;;;;;5.30;4.65;;;;;;;;;;5112869;28;20103;-63
2023/04/28 04:34:33;;;;;;;5.00;4.50;;;;;;;;;;5112652;28;20637;-63
2023/04/28 04:36:59;;;;;;;4.60;4.10;;;;;;;;;;5113231;27;20020;-60
2023/04/28 04:39:25;;;;;;;5.15;4.65;;;;;;;;;;5112867;28;20051;-62
2023/04/28 04:41:51;;;;;;;5.45;4.57;;;;;;;;;;5112469;27;20478;-63
2023/04/28 04:44:17;;;;;;;5.30;4.80;;;;;;;;;;5112721;28;20023;-63
2023/04/28 04:46:43;;;;;;;6.00;4.80;;;;;;;;;;5112316;28;20027;-63
2023/04/28 04:49:09;;;;;;;4.57;4.18;;;;;;;;;;5112597;28;20151;-65
2023/04/28 04:51:35;;;;;;;4.43;3.83;;;;;;;;;;5112474;28;20024;-67
2023/04/28 04:54:01;;;;;;;4.60;4.13;;;;;;;;;;5112880;28;20062;-68
2023/04/28 04:56:27;;;;;;;4.32;3.92;;;;;;;;;;5112491;28;20059;-67
2023/04/28 04:58:53;;;;;;;4.20;3.80;;;;;;;;;;5111751;28;20127;-67
2023/04/28 05:01:19;;;;;;;5.28;4.07;;;;;;;;;;5112502;28;20034;-63
2023/04/28 05:03:45;;;;;;;5.10;4.35;;;;;;;;;;5112317;28;20072;-63
2023/04/28 05:06:11;;;;;;;4.63;4.18;;;;;;;;;;5112509;28;20486;-67
2023/04/28 05:08:37;;;;;;;6.03;3.75;;;;;;;;;;5112151;28;20020;-62
2023/04/28 05:11:03;;;;;;;4.72;4.03;;;;;;;;;;5112357;28;20398;-62
2023/04/28 05:13:29;;;;;;;4.53;4.00;;;;;;;;;;5112673;28;20479;-63
2023/04/28 05:15:55;;;;;;;4.30;3.90;;;;;;;;;;5112055;28;20035;-62
2023/04/28 05:18:21;;;;;;;7.13;4.53;;;;;;;;;;5112315;28;20023;-62
2023/04/28 05:20:47;;;;;;;4.40;4.00;;;;;;;;;;5111906;28;20043;-63
2023/04/28 05:23:13;;;;;;;4.45;3.65;;;;;;;;;;5112154;28;20069;-62
2023/04/28 05:25:40;;;;;;;4.10;3.70;;;;;;;;;;5111820;28;20023;-62
2023/04/28 05:28:07;;;;;;;5.10;4.00;;;;;;;;;;5112235;28;20024;-63
2023/04/28 05:30:33;;;;;;;4.97;3.95;;;;;;;;;;5111775;28;20032;-62
2023/04/28 05:32:59;;;;;;;4.25;3.85;;;;;;;;;;5112374;28;20027;-62
2023/04/28 05:35:26;;;;;;;3.70;3.40;;;;;;;;;;5112022;28;20100;-62
2023/04/28 05:37:52;;;;;;;4.97;3.65;;;;;;;;;;5111699;28;20019;-62
2023/04/28 05:40:18;;;;;;;5.78;3.72;;;;;;;;;;5112161;28;20012;-62
2023/04/28 05:42:44;;;;;;;4.05;3.30;;;;;;;;;;5111670;28;20150;-62
2023/04/28 05:45:10;;;;;;;4.45;3.72;;;;;;;;;;5111701;28;20019;-62
2023/04/28 05:47:36;;;;;;;3.83;3.05;;;;;;;;;;5111570;28;20046;-62
2023/04/28 05:50:02;;;;;;;3.70;3.35;;;;;;;;;;5111911;28;20391;-63
2023/04/28 05:52:28;;;;;;;3.95;3.25;;;;;;;;;;5111979;28;20110;-62
2023/04/28 05:54:54;;;;;;;3.85;3.20;;;;;;;;;;5111342;28;20103;-62
2023/04/28 05:57:20;;;;;;;3.25;2.90;;;;;;;;;;5111526;28;20177;-62
2023/04/28 05:59:46;;;;;;;3.40;3.10;;;;;;;;;;5111439;28;20020;-62
2023/04/28 06:02:12;;;;;;;3.65;3.08;;;;;;;;;;5111618;28;20051;-63
2023/04/28 06:04:38;;;;;;;3.40;3.10;;;;;;;;;;5111346;28;20132;-62
2023/04/28 06:07:04;;;;;;;3.55;2.95;;;;;;;;;;5111630;28;20035;-63
2023/04/28 06:09:30;;;;;;;3.72;2.78;;;;;;;;;;5111685;28;20028;-62
2023/04/28 06:11:56;;;;;;;3.15;2.83;;;;;;;;;;5114333;28;20081;-64
2023/04/28 06:14:22;;;;;;;5.28;3.03;;;;;;;;;;5115754;28;20253;-62
2023/04/28 06:16:49;;;;;;;4.13;3.15;;;;;;;;;;5115605;28;20024;-62
2023/04/28 06:19:17;;;;;;;3.47;2.90;;;;;;;;;;5115707;28;20027;-62
2023/04/28 06:21:43;;;;;;;3.25;2.95;;;;;;;;;;5115768;28;20179;-62
2023/04/28 06:24:09;;;;;;;3.35;2.95;;;;;;;;;;5116157;28;20077;-62
2023/04/28 06:26:35;;;;;;;3.97;3.20;;;;;;;;;;5114139;28;20030;-62
2023/04/28 06:29:01;;;;;;;3.58;2.35;;;;;;;;;;5115795;28;20031;-63
2023/04/28 06:31:27;;;;;;;3.10;2.42;;;;;;;;;;5115399;28;20050;-62
2023/04/28 06:33:53;;;;;;;3.08;2.78;;;;;;;;;;5115244;28;20046;-62
2023/04/28 06:36:19;;;;;;;3.38;2.70;;;;;;;;;;5115442;28;20142;-62
2023/04/28 06:38:45;;;;;;;3.55;2.88;;;;;;;;;;5115078;28;20123;-63
2023/04/28 06:41:11;;;;;;;3.10;2.45;;;;;;;;;;5114161;28;20023;-62
2023/04/28 06:43:37;;;;;;;3.10;2.80;;;;;;;;;;5115084;28;20020;-62
2023/04/28 06:46:04;;;;;;;3.30;2.58;;;;;;;;;;5115299;27;20059;-62
2023/04/28 06:48:30;;;;;;;3.17;2.63;;;;;;;;;;5115443;28;20023;-67
2023/04/28 06:50:56;;;;;;;3.70;2.83;;;;;;;;;;5114614;28;20047;-62
2023/04/28 06:53:22;;;;;;;3.40;2.42;;;;;;;;;;5114901;28;20023;-62
2023/04/28 06:55:48;;;;;;;3.00;2.63;;;;;;;;;;5114768;27;20024;-62
2023/04/28 06:58:14;;;;;;;2.10;1.90;;;;;;;;;;5115047;27;20055;-62
2023/04/28 07:00:40;;;;;;;2.75;2.30;;;;;;;;;;5114611;28;20028;-62
2023/04/28 07:03:06;;;;;;;3.13;2.72;;;;;;;;;;5114880;28;20016;-62
2023/04/28 07:05:33;;;;;;;3.00;2.55;;;;;;;;;;5115090;28;20060;-62
2023/04/28 07:07:59;;;;;;;2.58;2.08;;;;;;;;;;5114965;28;20491;-62
2023/04/28 07:10:25;;;;;;;2.30;1.77;;;;;;;;;;5113443;28;20046;-62
2023/04/28 07:12:51;;;;;;;2.95;2.65;;;;;;;;;;5114213;28;20483;-62
2023/04/28 07:15:17;;;;;;;4.28;2.03;;;;;;;;;;5114704;28;20031;-62
2023/04/28 07:17:43;;;;;;;3.05;2.33;;;;;;;;;;5114346;28;20428;-62
2023/04/28 07:20:09;;;;;;;3.15;1.95;;;;;;;;;;5114353;28;20108;-62
2023/04/28 07:22:37;;;;;;;2.28;1.92;;;;;;;;;;5114077;28;20032;-63
2023/04/28 07:25:04;;;;;;;2.63;1.90;;;;;;;;;;5114507;28;20027;-62
2023/04/28 07:27:31;;;;;;;2.15;1.70;;;;;;;;;;5114666;28;20028;-62
2023/04/28 07:29:57;;;;;;;2.67;2.00;;;;;;;;;;5114060;28;20077;-63
2023/04/28 07:32:23;;;;;;;2.45;2.00;;;;;;;;;;5114293;27;20043;-62
2023/04/28 07:34:49;;;;;;;1.83;1.60;;;;;;;;;;5113970;28;20095;-62
2023/04/28 07:37:15;;;;;;;3.17;2.10;;;;;;;;;;5114202;28;20072;-62
2023/04/28 07:39:41;;;;;;;1.98;1.52;;;;;;;;;;5113900;28;20103;-62
2023/04/28 07:42:07;;;;;;;2.88;2.28;;;;;;;;;;5114149;28;20046;-62
2023/04/28 07:44:34;;;;;;;2.80;2.10;;;;;;;;;;5113894;28;20099;-62
2023/04/28 07:47:01;;;;;;;2.88;2.17;;;;;;;;;;5114371;28;20020;-62
2023/04/28 07:49:28;;;;;;;2.40;2.00;;;;;;;;;;5113854;28;20039;-62
2023/04/28 07:51:55;;;;;;;2.35;1.88;;;;;;;;;;5113699;28;20430;-62
2023/04/28 07:54:21;;;;;;;2.88;1.80;;;;;;;;;;5113897;28;20070;-62
2023/04/28 07:56:47;;;;;;;1.80;1.38;;;;;;;;;;5113530;27;20480;-62
2023/04/28 07:59:13;;;;;;;2.28;1.80;;;;;;;;;;5113783;28;20053;-63
2023/04/28 08:01:40;;;;;;;2.55;1.52;;;;;;;;;;5113552;28;20031;-63
2023/04/28 08:04:06;;;;;;;2.05;1.70;;;;;;;;;;5113601;28;20020;-62
2023/04/28 08:06:32;;;;;;;2.63;1.65;;;;;;;;;;5113753;28;20480;-63
2023/04/28 08:08:58;;;;;;;2.13;1.45;;;;;;;;;;5113603;28;20038;-63
2023/04/28 08:11:24;;;;;;;2.08;1.42;;;;;;;;;;5113601;27;20114;-62
2023/04/28 08:13:50;;;;;;;1.73;1.42;;;;;;;;;;5113226;28;20073;-62
2023/04/28 08:16:16;;;;;;;1.65;1.35;;;;;;;;;;5113471;27;20541;-65
2023/04/28 08:18:42;;;;;;;1.80;1.42;;;;;;;;;;5113032;28;20024;-65
2023/04/28 08:21:08;;;;;;;1.88;1.50;;;;;;;;;;5113274;28;20043;-66
2023/04/28 08:23:35;;;;;;;1.75;1.30;;;;;;;;;;5113137;27;20023;-67
2023/04/28 08:26:01;;;;;;;1.45;1.00;;;;;;;;;;5113669;28;20031;-65
2023/04/28 08:28:27;;;;;;;1.67;1.08;;;;;;;;;;5113139;28;20368;-66
2023/04/28 08:30:54;;;;;;;1.85;1.35;;;;;;;;;;5112798;28;20084;-62
2023/04/28 08:33:20;;;;;;;1.80;1.10;;;;;;;;;;5112476;28;20387;-63
2023/04/28 08:35:46;;;;;;;1.95;0.90;;;;;;;;;;5112935;28;20085;-63
2023/04/28 08:38:14;;;;;;;1.50;1.20;;;;;;;;;;5113059;28;20023;-65
2023/04/28 08:40:41;;;;;;;1.02;0.88;;;;;;;;;;5112555;28;20028;-64
2023/04/28 08:43:09;;;;;;;2.08;1.40;;;;;;;;;;5112779;28;20104;-66
2023/04/28 08:45:39;;;;;;;1.08;0.77;;;;;;;;;;5112395;28;20031;-66
2023/04/28 08:48:07;;;;;;;1.58;1.30;;;;;;;;;;5112863;28;20024;-65
2023/04/28 08:50:34;;;;;;;1.40;1.20;;;;;;;;;;5112368;28;20055;-62
2023/04/28 08:53:02;;;;;;;1.75;1.13;;;;;;;;;;5113092;28;20365;-65
2023/04/28 08:55:28;;;;;;;1.50;1.20;;;;;;;;;;5113057;28;20027;-66
2023/04/28 08:57:55;;;;;;;1.20;0.90;;;;;;;;;;5112413;28;20055;-69
2023/04/28 09:00:21;;;;;;;1.20;0.90;;;;;;;;;;5112458;28;20023;-67
2023/04/28 09:02:47;;;;;;;1.40;0.95;;;;;;;;;;5112267;27;20054;-62
2023/04/28 09:05:13;;;;;;;1.40;1.10;;;;;;;;;;5112482;28;20472;-63
2023/04/28 09:07:40;;;;;;;1.30;0.80;;;;;;;;;;5112289;28;20027;-62
2023/04/28 09:10:15;;;;;;;1.38;0.98;;;;;;;;;;5112334;28;20092;-62
2023/04/28 09:12:41;;;;;;;1.02;0.85;;;;;;;;;;5112055;28;20114;-66
2023/04/28 09:15:08;;;;;;;0.88;0.75;;;;;;;;;;5112489;28;20055;-63
2023/04/28 09:17:47;;;;;;;1.42;0.93;;;;;;;;;;5112071;28;20034;-65
2023/04/28 09:20:21;;;;;;;1.88;1.20;;;;;;;;;;5112049;28;20034;-66
2023/04/28 09:22:47;;;;;;;1.63;1.00;;;;;;;;;;5111946;28;20076;-67
2023/04/28 09:25:13;;;;;;;1.17;0.85;;;;;;;;;;5112127;28;20034;-66
2023/04/28 09:27:39;;;;;;;1.75;0.80;;;;;;;;;;5111932;28;20012;-63
2023/04/28 09:30:06;;;;;;;1.23;0.90;;;;;;;;;;5112050;28;20122;-66
2023/04/28 09:32:32;;;;;;;1.23;0.95;;;;;;;;;;5112358;28;20026;-66
2023/04/28 09:34:58;;;;;;;0.63;0.55;;;;;;;;;;5111995;28;20035;-67
2023/04/28 09:37:35;;;;;;;1.73;1.00;;;;;;;;;;5111891;28;20030;-64
2023/04/28 09:40:08;;;;;;;2.10;1.05;;;;;;;;;;5112074;28;20027;-63
2023/04/28 09:42:34;;;;;;;2.03;0.90;;;;;;;;;;5111503;28;20494;-62
2023/04/28 09:45:01;;;;;;;0.98;0.70;;;;;;;;;;5112083;28;20027;-66
2023/04/28 09:47:28;;;;;;;1.00;0.73;;;;;;;;;;5111734;28;20387;-65
2023/04/28 09:49:55;;;;;;;1.05;0.70;;;;;;;;;;5111298;28;20036;-64
2023/04/28 09:52:22;;;;;;;1.42;0.80;;;;;;;;;;5111720;28;20027;-67
2023/04/28 09:54:49;;;;;;;1.17;0.70;;;;;;;;;;5111635;28;20036;-66
2023/04/28 09:57:17;;;;;;;1.60;1.15;;;;;;;;;;5111684;28;20030;-65
2023/04/28 09:59:46;;;;;;;1.38;0.70;;;;;;;;;;5111561;28;20034;-62
2023/04/28 10:02:14;;;;;;;0.80;0.68;;;;;;;;;;5111478;28;20019;-62
2023/04/28 10:04:40;;;;;;;0.98;0.63;;;;;;;;;;5111351;28;20058;-62
2023/04/28 10:07:07;;;;;;;0.77;0.60;;;;;;;;;;5111545;28;20023;-62
2023/04/28 10:09:34;;;;;;;2.15;0.98;;;;;;;;;;5111345;28;20450;-62
2023/04/28 10:12:00;;;;;;;1.52;0.85;;;;;;;;;;5111924;28;20043;-62
2023/04/28 10:14:27;;;;;;;1.00;0.80;;;;;;;;;;5111542;28;20399;-62
2023/04/28 10:16:53;;;;;;;1.20;0.90;;;;;;;;;;5111323;28;20023;-62
2023/04/28 10:19:19;;;;;;;1.13;0.80;;;;;;;;;;5111363;28;20166;-62
2023/04/28 10:21:52;;;;;;;0.88;0.60;;;;;;;;;;5110875;28;20023;-62
2023/04/28 10:24:21;;;;;;;1.13;0.70;;;;;;;;;;5111377;28;20030;-62
2023/04/28 10:26:56;;;;;;;1.00;0.73;;;;;;;;;;5111298;28;20031;-62
2023/04/28 10:29:25;;;;;;;1.43;0.70;;;;;;;;;;5111451;28;20510;-62
2023/04/28 10:32:10;;;;;;;1.35;0.80;;;;;;;;;;5111129;28;20483;-62
2023/04/28 10:34:36;;;;;;;0.77;0.60;;;;;;;;;;5111094;28;20031;-63
2023/04/28 10:37:02;;;;;;;0.85;0.60;;;;;;;;;;5111669;28;20020;-62
2023/04/28 10:39:28;;;;;;;0.95;0.55;;;;;;;;;;5111604;28;20028;-62
2023/04/28 10:41:54;;;;;;;1.23;0.65;;;;;;;;;;5111039;28;20030;-62
2023/04/28 10:44:29;;;;;;;1.10;0.82;;;;;;;;;;5111226;28;20032;-62
2023/04/28 10:47:06;;;;;;;1.25;0.75;;;;;;;;;;5111091;28;20024;-62
2023/04/28 10:49:51;;;;;;;1.08;0.70;;;;;;;;;;5111290;28;20071;-63
2023/04/28 10:52:33;;;;;;;0.90;0.52;;;;;;;;;;5111192;28;20031;-63
2023/04/28 10:55:18;;;;;;;0.85;0.65;;;;;;;;;;5111285;28;20032;-63
2023/04/28 10:57:44;;;;;;;1.42;0.70;;;;;;;;;;5113272;28;20079;-62
2023/04/28 11:00:29;;;;;;;1.55;1.00;;;;;;;;;;5115024;28;20020;-62
2023/04/28 11:02:56;;;;;;;1.27;0.75;;;;;;;;;;5114672;28;20039;-63
2023/04/28 11:05:22;;;;;;;0.80;0.70;;;;;;;;;;5114878;28;20015;-62
2023/04/28 11:08:14;;;;;;;0.70;0.50;;;;;;;;;;5114628;28;20027;-62
2023/04/28 11:10:59;;;;;;;1.63;0.60;;;;;;;;;;5082538;28;20058;-63
2023/04/28 11:13:32;;;;;;;0.73;0.57;;;;;;;;;;5113233;28;20027;-62
2023/04/28 11:16:05;;;;;;;0.82;0.60;;;;;;;;;;5114839;28;20024;-62
2023/04/28 11:18:49;;;;;;;0.90;0.52;;;;;;;;;;5114902;28;20498;-62
2023/04/28 11:21:15;;;;;;;1.38;0.80;;;;;;;;;;5114326;28;20027;-62
2023/04/28 11:23:42;;;;;;;0.70;0.50;;;;;;;;;;5114188;28;20071;-66
2023/04/28 11:26:08;;;;;;;1.30;0.70;;;;;;;;;;5114396;28;20012;-63
2023/04/28 11:28:35;;;;;;;0.65;0.40;;;;;;;;;;5114079;28;20482;-67
2023/04/28 11:31:17;;;;;;;0.93;0.60;;;;;;;;;;5114494;28;20043;-67
2023/04/28 11:33:44;;;;;;;2.22;0.70;;;;;;;;;;5114067;28;20384;-64
2023/04/28 11:36:21;;;;;;;0.70;0.50;;;;;;;;;;5114248;27;20030;-62
2023/04/28 11:38:48;;;;;;;0.63;0.50;;;;;;;;;;5113972;28;20020;-62
2023/04/28 11:41:14;;;;;;;0.98;0.60;;;;;;;;;;5114263;28;20036;-62
2023/04/28 11:43:40;;;;;;;0.70;0.50;;;;;;;;;;5113950;28;20097;-62
2023/04/28 11:46:07;;;;;;;0.55;0.47;;;;;;;;;;5114175;28;20042;-62
2023/04/28 11:48:33;;;;;;;0.75;0.57;;;;;;;;;;5113902;28;20020;-62
2023/04/28 11:50:59;;;;;;;1.17;0.70;;;;;;;;;;5114187;28;20041;-63
2023/04/28 11:53:44;;;;;;;0.50;0.40;;;;;;;;;;5113863;27;20550;-63
2023/04/28 11:56:12;;;;;;;1.52;0.60;;;;;;;;;;5113962;28;20073;-62
2023/04/28 11:58:38;;;;;;;0.77;0.55;;;;;;;;;;5113682;28;20015;-64
2023/04/28 12:01:08;;;;;;;0.70;0.50;;;;;;;;;;5113761;28;20031;-62
2023/04/28 12:03:41;;;;;;;0.55;0.45;;;;;;;;;;5113322;28;20035;-62
2023/04/28 12:06:07;;;;;;;0.85;0.50;;;;;;;;;;5113852;28;20027;-62
2023/04/28 12:08:33;;;;;;;1.50;0.60;;;;;;;;;;5112357;28;20077;-62
2023/04/28 12:11:12;;;;;;;0.75;0.50;;;;;;;;;;5113851;28;20047;-63
2023/04/28 12:13:39;;;;;;;0.77;0.40;;;;;;;;;;5113384;28;20049;-62
2023/04/28 12:16:08;;;;;;;0.82;0.55;;;;;;;;;;5113409;28;20059;-62
2023/04/28 12:18:38;;;;;;;1.77;0.50;;;;;;;;;;5113370;28;20098;-62
2023/04/28 12:21:04;;;;;;;1.00;0.60;;;;;;;;;;5113449;28;20032;-62
2023/04/28 12:23:33;;;;;;;0.90;0.57;;;;;;;;;;5113745;28;20026;-62
2023/04/28 12:26:00;;;;;;;0.70;0.50;;;;;;;;;;5113665;28;20027;-62
2023/04/28 12:28:37;;;;;;;1.33;0.50;;;;;;;;;;5113131;28;20106;-62
2023/04/28 12:31:05;;;;;;;1.65;0.85;;;;;;;;;;5113228;28;20044;-62
2023/04/28 12:33:36;;;;;;;1.05;0.60;;;;;;;;;;5113580;28;20020;-62
2023/04/28 12:36:02;;;;;;;1.08;0.60;;;;;;;;;;5113298;28;20085;-63
2023/04/28 12:38:28;;;;;;;1.25;0.60;;;;;;;;;;5113470;28;20106;-62
2023/04/28 12:40:55;;;;;;;1.35;0.80;;;;;;;;;;5112636;27;20532;-62
2023/04/28 12:43:25;;;;;;;1.00;0.80;;;;;;;;;;5112787;28;20023;-63
2023/04/28 12:45:53;;;;;;;1.55;0.50;;;;;;;;;;5112496;28;20031;-62
2023/04/28 12:48:19;;;;;;;0.65;0.50;;;;;;;;;;5112810;28;20023;-62
2023/04/28 12:50:45;;;;;;;0.90;0.40;;;;;;;;;;5112516;28;20398;-62
2023/04/28 12:53:11;;;;;;;1.00;0.73;;;;;;;;;;5112832;28;20046;-62
2023/04/28 12:55:40;;;;;;;0.73;0.50;;;;;;;;;;5112361;28;20092;-62
2023/04/28 12:58:07;;;;;;;1.10;0.50;;;;;;;;;;5112685;28;20023;-63
2023/04/28 13:00:33;;;;;;;1.10;0.50;;;;;;;;;;5112431;28;20038;-62
2023/04/28 13:02:59;;;;;;;0.50;0.50;;;;;;;;;;5112859;28;20023;-62
2023/04/28 13:05:25;;;;;;;1.13;0.50;;;;;;;;;;5112496;28;20111;-62
2023/04/28 13:07:51;;;;;;;0.57;0.40;;;;;;;;;;5112321;28;20157;-63
2023/04/28 13:10:18;;;;;;;1.33;0.43;;;;;;;;;;5112362;28;20032;-63
2023/04/28 13:12:44;;;;;;;0.85;0.50;;;;;;;;;;5112150;28;20387;-62
2023/04/28 13:15:11;;;;;;;0.80;0.50;;;;;;;;;;5112393;28;20023;-62
2023/04/28 13:17:37;;;;;;;0.75;0.50;;;;;;;;;;5111898;28;20048;-62
2023/04/28 13:20:04;;;;;;;0.50;0.40;;;;;;;;;;5111901;28;20065;-62
2023/04/28 13:22:30;;;;;;;0.50;0.43;;;;;;;;;;5112477;28;20382;-62
2023/04/28 13:24:56;;;;;;;0.70;0.45;;;;;;;;;;5111974;28;20536;-62
2023/04/28 13:27:23;;;;;;;0.57;0.50;;;;;;;;;;5110666;28;20027;-63
2023/04/28 13:29:49;;;;;;;0.57;0.40;;;;;;;;;;5111615;28;20044;-62
2023/04/28 13:32:15;;;;;;;0.50;0.40;;;;;;;;;;5111485;28;20475;-62
2023/04/28 13:34:41;;;;;;;0.60;0.50;;;;;;;;;;5111679;28;20028;-62
2023/04/28 13:37:07;;;;;;;0.70;0.40;;;;;;;;;;5112042;28;20026;-67
2023/04/28 13:39:33;;;;;;;1.65;0.80;;;;;;;;;;5110450;28;20019;-62
2023/04/28 13:42:00;;;;;;;0.40;0.40;;;;;;;;;;5112230;28;20388;-63
2023/04/28 13:44:26;;;;;;;0.68;0.45;;;;;;;;;;5111877;28;20035;-66
2023/04/28 13:46:52;;;;;;;0.75;0.55;;;;;;;;;;5110322;28;20024;-65
2023/04/28 13:49:19;;;;;;;1.73;0.43;;;;;;;;;;5108438;28;20118;-64
2023/04/28 13:51:45;;;;;;;0.98;0.50;;;;;;;;;;5107340;28;20043;-65
2023/04/28 13:54:11;;;;;;;0.88;0.57;;;;;;;;;;5110305;28;20392;-65
2023/04/28 13:56:37;;;;;;;0.80;0.50;;;;;;;;;;5111322;28;20472;-64
2023/04/28 13:59:03;;;;;;;0.75;0.60;;;;;;;;;;5110352;27;20027;-65
2023/04/28 14:01:30;;;;;;;1.40;0.70;;;;;;;;;;5111471;28;20583;-64
2023/04/28 14:03:55;;;;;;;4.32;0.63;;;;;;;;;;5106399;27;20376;-64
2023/04/28 14:06:22;;;;;;;0.50;0.50;;;;;;;;;;5109560;28;20026;-62
2023/04/28 14:08:48;;;;;;;0.98;0.60;;;;;;;;;;5111710;28;20030;-62
2023/04/28 14:11:14;;;;;;;1.92;0.80;;;;;;;;;;5109835;28;20031;-65
2023/04/28 14:13:40;;;;;;;1.48;0.47;;;;;;;;;;5120597;28;20072;-64
2023/04/28 14:16:06;;;;;;;6.20;0.70;;;;;;;;;;5109548;28;20035;-65
2023/04/28 14:18:33;;;;;;;1.23;0.50;;;;;;;;;;5110546;28;20019;-65
2023/04/28 14:21:00;;;;;;;0.95;0.50;;;;;;;;;;5110983;28;20038;-62
2023/04/28 14:23:27;;;;;;;3.38;0.50;;;;;;;;;;5110093;28;20036;-62
2023/04/28 14:25:54;;;;;;;1.10;0.50;;;;;;;;;;5099900;28;20026;-63
2023/04/28 14:28:20;;;;;;;1.30;0.45;;;;;;;;;;5110819;28;20030;-62
2023/04/28 14:30:46;;;;;;;1.73;0.45;;;;;;;;;;5108821;28;20556;-63
2023/04/28 14:33:12;;;;;;;1.65;0.60;;;;;;;;;;5113455;28;20023;-62
2023/04/28 14:35:40;;;;;;;2.40;0.68;;;;;;;;;;5112354;28;20031;-62
2023/04/28 14:38:06;;;;;;;1.60;0.30;;;;;;;;;;5113980;27;20024;-62
2023/04/28 14:40:32;;;;;;;0.93;0.50;;;;;;;;;;5115230;28;20027;-63